Time;durP1;ratioP1;P1;durP2;ratioP2;P2;SDS_P1;SDS_P2;PMS_P1;PMS_P2;Temp;Humidity;BMP_temperature;BMP_pressure;BME280_temperature;BME280_humidity;BME280_pressure;Samples;Min_cycle;Max_cycle;Signal;HPM_P1;HPM_P2
2024/05/07 00:00:27;;;;;;;10.15;6.05;;;;;;;;;;5455067;26;19998;-89
2024/05/07 00:02:53;;;;;;;9.70;5.40;;;;;;;;;;5454483;26;20091;-89
2024/05/07 00:05:19;;;;;;;10.38;4.97;;;;;;;;;;5454695;26;20431;-88
2024/05/07 00:07:45;;;;;;;10.00;5.53;;;;;;;;;;5454741;26;20086;-91
2024/05/07 00:10:11;;;;;;;9.32;5.40;;;;;;;;;;5454841;26;20008;-89
2024/05/07 00:12:37;;;;;;;9.27;4.90;;;;;;;;;;5455683;26;20017;-90
2024/05/07 00:15:04;;;;;;;8.55;4.93;;;;;;;;;;5459111;26;19994;-88
2024/05/07 00:17:30;;;;;;;10.30;4.88;;;;;;;;;;5458287;26;20045;-89
2024/05/07 00:19:57;;;;;;;7.65;5.20;;;;;;;;;;5457868;26;20341;-89
2024/05/07 00:22:23;;;;;;;8.23;4.90;;;;;;;;;;5458054;26;20008;-88
2024/05/07 00:24:49;;;;;;;8.27;4.82;;;;;;;;;;5458311;26;20004;-90
2024/05/07 00:27:15;;;;;;;9.63;4.50;;;;;;;;;;5458131;26;19998;-90
2024/05/07 00:29:41;;;;;;;7.63;4.40;;;;;;;;;;5458418;26;19994;-89
2024/05/07 00:32:08;;;;;;;9.10;4.50;;;;;;;;;;5458170;26;20009;-89
2024/05/07 00:34:34;;;;;;;8.52;4.60;;;;;;;;;;5458691;26;20004;-89
2024/05/07 00:37:00;;;;;;;10.40;4.97;;;;;;;;;;5457898;26;19990;-91
2024/05/07 00:39:26;;;;;;;11.25;4.43;;;;;;;;;;5457966;26;20182;-89
2024/05/07 00:41:52;;;;;;;7.38;4.47;;;;;;;;;;5457977;26;19990;-89
2024/05/07 00:44:18;;;;;;;6.55;4.35;;;;;;;;;;5458159;26;20001;-89
2024/05/07 00:46:45;;;;;;;7.95;4.47;;;;;;;;;;5458162;26;20450;-89
2024/05/07 00:49:11;;;;;;;5.88;4.57;;;;;;;;;;5457123;26;20074;-89
2024/05/07 00:51:40;;;;;;;10.32;4.30;;;;;;;;;;5458400;26;20005;-89
2024/05/07 00:54:08;;;;;;;6.70;4.50;;;;;;;;;;5458324;26;20002;-89
2024/05/07 00:56:34;;;;;;;7.93;4.00;;;;;;;;;;5458195;26;19998;-90
2024/05/07 00:59:04;;;;;;;7.88;4.43;;;;;;;;;;5457801;26;19998;-89
2024/05/07 01:01:30;;;;;;;8.50;4.68;;;;;;;;;;5457484;26;20357;-89
2024/05/07 01:03:56;;;;;;;6.13;4.10;;;;;;;;;;5457310;26;19994;-89
2024/05/07 01:06:22;;;;;;;6.35;4.38;;;;;;;;;;5457310;26;19990;-87
2024/05/07 01:08:48;;;;;;;7.75;4.40;;;;;;;;;;5456959;26;19998;-89
2024/05/07 01:11:14;;;;;;;8.05;4.20;;;;;;;;;;5457467;26;20063;-88
2024/05/07 01:13:40;;;;;;;8.32;4.20;;;;;;;;;;5457172;26;20002;-89
2024/05/07 01:16:06;;;;;;;5.68;4.60;;;;;;;;;;5458114;26;20396;-90
2024/05/07 01:18:32;;;;;;;6.35;4.38;;;;;;;;;;5457148;26;20008;-89
2024/05/07 01:20:58;;;;;;;8.77;4.30;;;;;;;;;;5456452;26;20070;-89
2024/05/07 01:23:24;;;;;;;9.63;3.95;;;;;;;;;;5456603;26;20006;-89
2024/05/07 01:25:50;;;;;;;7.47;4.80;;;;;;;;;;5456947;26;19994;-90
2024/05/07 01:28:17;;;;;;;7.05;4.75;;;;;;;;;;5457213;26;20013;-89
2024/05/07 01:30:43;;;;;;;10.50;5.13;;;;;;;;;;5457143;26;20453;-89
2024/05/07 01:33:09;;;;;;;9.57;5.30;;;;;;;;;;5457800;26;20330;-89
2024/05/07 01:35:35;;;;;;;7.10;4.88;;;;;;;;;;5457750;26;20000;-88
2024/05/07 01:38:01;;;;;;;6.90;5.40;;;;;;;;;;5457452;26;19994;-89
2024/05/07 01:40:30;;;;;;;8.25;5.22;;;;;;;;;;5456689;26;20014;-89
2024/05/07 01:42:56;;;;;;;8.48;5.20;;;;;;;;;;5456578;26;19998;-89
2024/05/07 01:45:22;;;;;;;7.70;4.90;;;;;;;;;;5457160;26;19994;-89
2024/05/07 01:47:48;;;;;;;10.30;5.10;;;;;;;;;;5456782;26;19998;-89
2024/05/07 01:50:15;;;;;;;10.35;5.20;;;;;;;;;;5456687;26;20001;-88
2024/05/07 01:52:41;;;;;;;8.35;5.82;;;;;;;;;;5457180;26;20014;-89
2024/05/07 01:55:07;;;;;;;5.35;4.40;;;;;;;;;;5457398;26;19997;-89
2024/05/07 01:57:33;;;;;;;8.65;4.85;;;;;;;;;;5456827;26;20422;-90
2024/05/07 01:59:59;;;;;;;8.80;5.10;;;;;;;;;;5456905;26;19998;-90
2024/05/07 02:02:25;;;;;;;6.97;4.75;;;;;;;;;;5455962;26;19994;-89
2024/05/07 02:04:51;;;;;;;6.85;4.63;;;;;;;;;;5456531;26;19998;-88
2024/05/07 02:07:17;;;;;;;6.75;4.60;;;;;;;;;;5456596;26;20005;-88
2024/05/07 02:09:43;;;;;;;6.07;4.40;;;;;;;;;;5456452;26;20400;-89
2024/05/07 02:12:11;;;;;;;6.68;4.55;;;;;;;;;;5457269;26;19998;-89
2024/05/07 02:14:37;;;;;;;6.55;4.50;;;;;;;;;;5457020;26;20427;-89
2024/05/07 02:17:04;;;;;;;8.40;4.85;;;;;;;;;;5455821;26;20002;-89
2024/05/07 02:19:30;;;;;;;5.75;4.72;;;;;;;;;;5456322;26;19994;-88
2024/05/07 02:21:56;;;;;;;6.55;4.35;;;;;;;;;;5455984;26;20008;-89
2024/05/07 02:24:23;;;;;;;10.10;4.85;;;;;;;;;;5487997;26;19990;-89
2024/05/07 02:26:49;;;;;;;6.07;4.80;;;;;;;;;;5456270;26;20009;-88
2024/05/07 02:29:15;;;;;;;8.63;4.75;;;;;;;;;;5456025;26;20005;-89
2024/05/07 02:31:41;;;;;;;7.38;4.97;;;;;;;;;;5456427;26;20002;-90
2024/05/07 02:34:07;;;;;;;6.22;4.45;;;;;;;;;;5456139;26;20005;-89
2024/05/07 02:36:33;;;;;;;7.90;4.78;;;;;;;;;;5454770;26;20139;-89
2024/05/07 02:38:59;;;;;;;8.07;4.50;;;;;;;;;;5456180;26;20006;-89
2024/05/07 02:41:25;;;;;;;6.82;4.80;;;;;;;;;;5455736;26;20319;-89
2024/05/07 02:43:51;;;;;;;5.82;4.70;;;;;;;;;;5456302;26;19994;-91
2024/05/07 02:46:17;;;;;;;5.60;4.47;;;;;;;;;;5456019;26;20411;-89
2024/05/07 02:48:44;;;;;;;9.25;5.35;;;;;;;;;;5456989;26;19990;-89
2024/05/07 02:51:10;;;;;;;7.63;5.00;;;;;;;;;;5456528;26;20002;-90
2024/05/07 02:53:36;;;;;;;8.45;4.85;;;;;;;;;;5456055;26;19994;-90
2024/05/07 02:56:02;;;;;;;5.05;4.38;;;;;;;;;;5455916;26;20030;-89
2024/05/07 02:58:28;;;;;;;5.72;4.57;;;;;;;;;;5455813;26;19994;-88
2024/05/07 03:00:57;;;;;;;6.63;4.40;;;;;;;;;;5455633;26;20009;-89
2024/05/07 03:03:24;;;;;;;6.07;4.72;;;;;;;;;;5455773;26;20020;-91
2024/05/07 03:05:51;;;;;;;6.57;4.70;;;;;;;;;;5455359;26;20459;-91
2024/05/07 03:08:17;;;;;;;9.57;4.68;;;;;;;;;;5455253;26;19998;-91
2024/05/07 03:10:43;;;;;;;5.55;4.40;;;;;;;;;;5456287;26;20009;-90
2024/05/07 03:13:09;;;;;;;5.10;4.32;;;;;;;;;;5455550;26;20022;-89
2024/05/07 03:15:35;;;;;;;7.45;5.00;;;;;;;;;;5455646;26;20001;-90
2024/05/07 03:18:01;;;;;;;5.55;4.28;;;;;;;;;;5455917;26;20001;-89
2024/05/07 03:20:27;;;;;;;7.53;4.80;;;;;;;;;;5455353;26;19994;-88
2024/05/07 03:22:53;;;;;;;6.10;4.53;;;;;;;;;;5455302;26;20005;-90
2024/05/07 03:25:21;;;;;;;6.93;5.10;;;;;;;;;;5455588;26;20009;-90
2024/05/07 03:27:47;;;;;;;7.93;5.07;;;;;;;;;;5455296;26;20062;-89
2024/05/07 03:30:13;;;;;;;7.20;4.72;;;;;;;;;;5456140;26;20219;-90
2024/05/07 03:32:39;;;;;;;6.63;5.63;;;;;;;;;;5455047;26;19998;-88
2024/05/07 03:35:05;;;;;;;7.30;5.47;;;;;;;;;;5455389;26;20326;-89
2024/05/07 03:37:31;;;;;;;7.65;4.78;;;;;;;;;;5454961;26;19994;-91
2024/05/07 03:39:57;;;;;;;8.07;5.95;;;;;;;;;;5455228;26;20000;-89
2024/05/07 03:42:23;;;;;;;5.97;4.95;;;;;;;;;;5454756;26;19998;-89
2024/05/07 03:44:49;;;;;;;10.60;5.68;;;;;;;;;;5455164;26;19999;-91
2024/05/07 03:47:15;;;;;;;9.05;5.22;;;;;;;;;;5455700;26;19998;-91
2024/05/07 03:49:41;;;;;;;8.98;5.80;;;;;;;;;;5455185;26;20005;-89
2024/05/07 03:52:07;;;;;;;8.40;5.82;;;;;;;;;;5454978;26;20199;-89
2024/05/07 03:54:33;;;;;;;7.47;6.07;;;;;;;;;;5454476;26;19994;-89
2024/05/07 03:56:59;;;;;;;13.05;6.43;;;;;;;;;;5454638;26;20033;-89
2024/05/07 03:59:25;;;;;;;10.85;6.53;;;;;;;;;;5454860;26;20009;-89
2024/05/07 04:01:51;;;;;;;9.15;6.40;;;;;;;;;;5454516;26;20044;-89
2024/05/07 04:04:17;;;;;;;12.13;6.50;;;;;;;;;;5455555;26;20117;-89
2024/05/07 04:06:44;;;;;;;12.68;7.45;;;;;;;;;;5455403;26;19998;-90
2024/05/07 04:09:10;;;;;;;12.82;6.70;;;;;;;;;;5455096;26;19994;-90
2024/05/07 04:11:43;;;;;;;10.82;6.80;;;;;;;;;;5453812;26;20471;-90
2024/05/07 04:14:09;;;;;;;11.77;6.97;;;;;;;;;;5453838;26;20228;-90
2024/05/07 04:16:36;;;;;;;8.90;6.78;;;;;;;;;;5454553;26;19998;-91
2024/05/07 04:19:02;;;;;;;12.98;6.90;;;;;;;;;;5454978;26;20038;-88
2024/05/07 04:21:28;;;;;;;12.05;7.60;;;;;;;;;;5454493;26;19998;-88
2024/05/07 04:23:54;;;;;;;10.82;7.30;;;;;;;;;;5453978;26;20334;-87
2024/05/07 04:26:20;;;;;;;10.07;7.88;;;;;;;;;;5453910;26;20002;-88
2024/05/07 04:28:46;;;;;;;11.65;7.68;;;;;;;;;;5455219;26;20438;-90
2024/05/07 04:31:13;;;;;;;14.18;8.32;;;;;;;;;;5453974;26;19998;-87
2024/05/07 04:33:39;;;;;;;10.32;7.40;;;;;;;;;;5453963;26;20153;-88
2024/05/07 04:36:05;;;;;;;14.88;8.18;;;;;;;;;;5454078;26;19998;-88
2024/05/07 04:38:31;;;;;;;16.13;8.48;;;;;;;;;;5454033;26;20067;-91
2024/05/07 04:40:57;;;;;;;11.52;8.07;;;;;;;;;;5454074;26;20010;-87
2024/05/07 04:43:23;;;;;;;13.05;8.07;;;;;;;;;;5453862;26;20005;-90
2024/05/07 04:45:51;;;;;;;14.02;8.60;;;;;;;;;;5455231;26;19998;-89
2024/05/07 04:48:17;;;;;;;15.70;8.17;;;;;;;;;;5471721;26;20071;-88
2024/05/07 04:50:43;;;;;;;14.35;8.40;;;;;;;;;;5456435;26;20010;-87
2024/05/07 04:53:09;;;;;;;14.85;8.18;;;;;;;;;;5454648;26;20000;-89
2024/05/07 04:55:37;;;;;;;14.73;8.07;;;;;;;;;;5441738;26;20003;-88
2024/05/07 04:58:03;;;;;;;12.82;8.15;;;;;;;;;;5439094;26;20034;-90
2024/05/07 05:00:29;;;;;;;11.70;7.82;;;;;;;;;;5480567;26;20012;-90
2024/05/07 05:02:55;;;;;;;13.60;8.07;;;;;;;;;;5469997;26;19990;-88
2024/05/07 05:05:21;;;;;;;14.85;8.23;;;;;;;;;;5474388;26;20418;-89
2024/05/07 05:07:47;;;;;;;12.00;7.65;;;;;;;;;;5475776;26;20014;-87
2024/05/07 05:10:13;;;;;;;11.05;7.57;;;;;;;;;;5456560;26;19990;-88
2024/05/07 05:12:39;;;;;;;15.73;8.32;;;;;;;;;;5458407;26;19994;-88
2024/05/07 05:15:05;;;;;;;14.00;7.72;;;;;;;;;;5460098;26;20514;-92
2024/05/07 05:17:31;;;;;;;14.32;7.85;;;;;;;;;;5457530;26;19990;-89
2024/05/07 05:19:57;;;;;;;10.30;7.55;;;;;;;;;;5439789;26;20002;-90
2024/05/07 05:22:23;;;;;;;11.60;7.63;;;;;;;;;;5452458;26;20040;-89
2024/05/07 05:24:49;;;;;;;10.23;7.10;;;;;;;;;;5422410;26;20320;-92
2024/05/07 05:27:15;;;;;;;9.43;7.13;;;;;;;;;;5421130;26;20304;-90
2024/05/07 05:29:41;;;;;;;10.07;6.88;;;;;;;;;;5421141;26;20067;-89
2024/05/07 05:32:07;;;;;;;12.00;6.80;;;;;;;;;;5420407;26;20027;-88
2024/05/07 05:34:33;;;;;;;9.77;7.28;;;;;;;;;;5452158;26;20063;-87
2024/05/07 05:36:59;;;;;;;10.05;7.18;;;;;;;;;;5439922;26;20075;-87
2024/05/07 05:39:27;;;;;;;10.93;6.95;;;;;;;;;;5474343;26;19997;-87
2024/05/07 05:41:54;;;;;;;;;;;;;;;;;;5472142;26;20021;-90
2024/05/07 05:44:22;;;;;;;13.25;7.03;;;;;;;;;;5491232;26;20139;-91
2024/05/07 05:46:48;;;;;;;10.27;7.25;;;;;;;;;;5483566;26;20013;-90
2024/05/07 05:49:14;;;;;;;15.48;6.57;;;;;;;;;;5485488;26;19998;-89
2024/05/07 05:51:40;;;;;;;12.45;7.22;;;;;;;;;;5455560;26;20006;-88
2024/05/07 05:54:06;;;;;;;8.60;6.63;;;;;;;;;;5456593;26;19994;-89
2024/05/07 05:56:33;;;;;;;9.63;6.55;;;;;;;;;;5456380;26;19998;-90
2024/05/07 05:58:59;;;;;;;12.27;6.88;;;;;;;;;;5455717;26;19994;-90
2024/05/07 06:01:27;;;;;;;11.98;6.60;;;;;;;;;;5468035;26;20025;-88
2024/05/07 06:03:53;;;;;;;9.65;6.80;;;;;;;;;;5492795;26;20001;-88
2024/05/07 06:06:19;;;;;;;12.85;7.18;;;;;;;;;;5466689;26;20006;-89
2024/05/07 06:08:45;;;;;;;9.27;7.30;;;;;;;;;;5455730;26;20001;-88
2024/05/07 06:11:11;;;;;;;12.25;7.63;;;;;;;;;;5454385;26;19993;-88
2024/05/07 06:13:37;;;;;;;9.32;7.30;;;;;;;;;;5455447;26;20433;-88
2024/05/07 06:16:03;;;;;;;10.02;7.43;;;;;;;;;;5455771;26;20005;-89
2024/05/07 06:18:29;;;;;;;9.93;7.35;;;;;;;;;;5455425;26;20001;-90
2024/05/07 06:20:55;;;;;;;10.65;7.07;;;;;;;;;;5456002;26;19998;-92
2024/05/07 06:23:21;;;;;;;8.43;6.97;;;;;;;;;;5484415;26;20346;-91
2024/05/07 06:25:48;;;;;;;10.32;6.70;;;;;;;;;;5483776;26;20038;-90
2024/05/07 06:28:14;;;;;;;11.00;7.57;;;;;;;;;;5456279;26;20224;-88
2024/05/07 06:30:40;;;;;;;11.00;7.43;;;;;;;;;;5467185;26;19998;-90
2024/05/07 06:33:07;;;;;;;11.13;6.88;;;;;;;;;;5455864;26;19990;-89
2024/05/07 06:35:33;;;;;;;10.20;7.25;;;;;;;;;;5455868;26;19998;-89
2024/05/07 06:37:59;;;;;;;9.10;6.93;;;;;;;;;;5455595;26;20033;-90
2024/05/07 06:40:25;;;;;;;9.00;6.97;;;;;;;;;;5455235;26;20041;-89
2024/05/07 06:42:51;;;;;;;11.40;7.25;;;;;;;;;;5456372;26;20002;-88
2024/05/07 06:45:17;;;;;;;8.38;6.57;;;;;;;;;;5455655;26;20022;-90
2024/05/07 06:47:43;;;;;;;11.38;6.72;;;;;;;;;;5455411;26;20044;-90
2024/05/07 06:50:09;;;;;;;8.57;6.95;;;;;;;;;;5455790;26;19994;-89
2024/05/07 06:52:35;;;;;;;11.00;6.57;;;;;;;;;;5455900;26;20030;-91
2024/05/07 06:55:01;;;;;;;9.77;7.93;;;;;;;;;;5455589;26;20063;-90
2024/05/07 06:57:27;;;;;;;10.55;7.82;;;;;;;;;;5454833;26;20005;-90
2024/05/07 06:59:53;;;;;;;11.40;8.05;;;;;;;;;;5456003;26;20002;-90
2024/05/07 07:02:19;;;;;;;14.73;8.80;;;;;;;;;;5455297;26;19994;-89
2024/05/07 07:04:45;;;;;;;10.18;9.05;;;;;;;;;;5455602;26;20153;-90
2024/05/07 07:07:12;;;;;;;14.68;9.27;;;;;;;;;;5455520;26;19994;-89
2024/05/07 07:09:38;;;;;;;13.63;8.45;;;;;;;;;;5455095;26;20026;-91
2024/05/07 07:12:04;;;;;;;16.52;9.73;;;;;;;;;;5455228;26;20072;-90
2024/05/07 07:14:30;;;;;;;16.23;10.43;;;;;;;;;;5455142;26;20435;-89
2024/05/07 07:16:58;;;;;;;17.10;10.52;;;;;;;;;;5454872;26;20009;-88
2024/05/07 07:19:26;;;;;;;17.47;11.50;;;;;;;;;;5456011;26;20024;-88
2024/05/07 07:21:52;;;;;;;25.77;12.68;;;;;;;;;;5455619;26;19994;-92
2024/05/07 07:24:18;;;;;;;22.77;11.77;;;;;;;;;;5455650;26;20013;-90
2024/05/07 07:26:44;;;;;;;21.60;12.95;;;;;;;;;;5472482;26;20043;-88
2024/05/07 07:29:10;;;;;;;21.52;13.27;;;;;;;;;;5485443;26;20006;-89
2024/05/07 07:31:36;;;;;;;23.35;13.80;;;;;;;;;;5464427;26;19998;-89
2024/05/07 07:34:02;;;;;;;19.13;12.63;;;;;;;;;;5484956;26;20004;-88
2024/05/07 07:36:28;;;;;;;24.08;14.75;;;;;;;;;;5484185;26;19994;-88
2024/05/07 07:38:54;;;;;;;23.13;14.57;;;;;;;;;;5480951;26;20008;-89
2024/05/07 07:41:21;;;;;;;22.35;14.90;;;;;;;;;;5454946;26;20036;-89
2024/05/07 07:43:47;;;;;;;28.30;16.35;;;;;;;;;;5454877;26;20199;-91
2024/05/07 07:46:12;;;;;;;24.58;15.27;;;;;;;;;;5454627;26;20006;-89
2024/05/07 07:48:38;;;;;;;26.27;14.77;;;13.70;99.90;;;;;;5454677;26;20058;-89
2024/05/07 07:51:04;;;;;;;25.75;16.77;;;13.70;99.90;;;;;;5454997;26;20015;-90
2024/05/07 07:53:30;;;;;;;26.45;15.70;;;13.70;99.90;;;;;;5453869;26;19998;-90
2024/05/07 07:55:56;;;;;;;29.73;16.27;;;;;;;;;;5455560;26;19990;-90
2024/05/07 07:58:22;;;;;;;25.95;16.33;;;13.40;99.90;;;;;;5455167;26;20004;-89
2024/05/07 08:00:47;;;;;;;28.05;16.15;;;13.80;99.90;;;;;;5454249;26;20426;-90
2024/05/07 08:03:15;;;;;;;27.63;17.63;;;13.90;99.90;;;;;;5454288;26;19998;-89
2024/05/07 08:05:41;;;;;;;33.37;19.67;;;14.20;99.90;;;;;;5453833;26;20137;-89
2024/05/07 08:08:06;;;;;;;31.73;19.05;;;14.30;99.90;;;;;;5454661;26;19994;-89
2024/05/07 08:10:33;;;;;;;29.88;19.25;;;14.20;99.90;;;;;;5454442;26;20380;-88
2024/05/07 08:12:59;;;;;;;26.83;17.80;;;;;;;;;;5454608;26;19998;-89
2024/05/07 08:15:25;;;;;;;30.23;19.77;;;14.70;99.90;;;;;;5454799;26;20461;-89
2024/05/07 08:17:50;;;;;;;26.00;17.30;;;14.60;99.90;;;;;;5454430;26;20012;-91
2024/05/07 08:20:16;;;;;;;28.98;18.95;;;14.80;99.90;;;;;;5454333;26;20181;-88
2024/05/07 08:22:42;;;;;;;29.15;18.92;;;14.50;99.90;;;;;;5453169;26;20017;-89
2024/05/07 08:25:07;;;;;;;27.17;19.00;;;14.90;99.90;;;;;;5454149;26;20502;-89
2024/05/07 08:27:33;;;;;;;30.25;19.13;;;14.80;99.90;;;;;;5453785;26;20002;-90
2024/05/07 08:29:59;;;;;;;28.45;18.88;;;15.30;99.90;;;;;;5454248;26;19990;-90
2024/05/07 08:32:30;;;;;;;29.58;19.45;;;15.00;99.90;;;;;;5454821;26;19994;-90
2024/05/07 08:34:55;;;;;;;28.45;17.98;;;14.70;99.90;;;;;;5456777;26;19998;-90
2024/05/07 08:37:24;;;;;;;28.42;18.55;;;15.00;99.90;;;;;;5456751;26;20392;-91
2024/05/07 08:39:53;;;;;;;28.20;19.67;;;15.00;99.90;;;;;;5457447;26;20008;-90
2024/05/07 08:42:18;;;;;;;27.98;19.48;;;15.40;99.90;;;;;;5457246;26;20002;-90
2024/05/07 08:44:45;;;;;;;27.10;19.48;;;15.30;99.90;;;;;;5456597;26;19998;-89
2024/05/07 08:47:10;;;;;;;25.95;18.77;;;15.20;99.90;;;;;;5457627;26;20001;-89
2024/05/07 08:49:37;;;;;;;26.58;18.60;;;15.10;99.90;;;;;;5457678;26;19998;-89
2024/05/07 08:52:06;;;;;;;26.00;17.70;;;;;;;;;;5457683;26;20513;-90
2024/05/07 08:54:32;;;;;;;24.67;16.52;;;14.70;99.90;;;;;;5457218;26;20009;-88
2024/05/07 08:56:58;;;;;;;25.08;17.05;;;;;;;;;;5458175;26;19998;-90
2024/05/07 08:59:26;;;;;;;22.77;16.13;;;;;;;;;;5457339;26;20026;-88
2024/05/07 09:01:51;;;;;;;21.52;15.68;;;14.70;99.90;;;;;;5457174;26;20063;-89
2024/05/07 09:04:19;;;;;;;24.27;15.40;;;14.80;99.90;;;;;;5457419;26;19998;-90
2024/05/07 09:06:51;;;;;;;21.38;15.05;;;14.60;99.90;;;;;;5457119;26;20392;-88
2024/05/07 09:09:18;;;;;;;22.38;15.00;;;14.70;99.90;;;;;;5457395;26;20006;-91
2024/05/07 09:11:51;;;;;;;18.77;14.35;;;;;;;;;;5456852;26;19998;-90
2024/05/07 09:14:18;;;;;;;21.08;15.48;;;14.90;99.90;;;;;;5457063;26;20462;-90
2024/05/07 09:16:44;;;;;;;18.90;14.45;;;14.90;99.90;;;;;;5456201;26;20042;-90
2024/05/07 09:19:13;;;;;;;21.15;14.38;;;14.90;99.90;;;;;;5456143;26;20446;-89
2024/05/07 09:21:40;;;;;;;19.08;12.25;;;;;;;;;;5456803;26;20401;-90
2024/05/07 09:24:06;;;;;;;21.23;14.18;;;;;;;;;;5456987;26;20018;-90
2024/05/07 09:26:43;;;;;;;21.35;13.52;;;;;;;;;;5456496;26;20002;-90
2024/05/07 09:29:09;;;;;;;17.10;12.38;;;;;;;;;;5448874;26;20415;-89
2024/05/07 09:31:36;;;;;;;16.83;11.95;;;;;;;;;;5420298;26;20002;-88
2024/05/07 09:34:02;;;;;;;18.17;11.57;;;;;;;;;;5420380;26;19999;-91
2024/05/07 09:36:28;;;;;;;18.30;13.15;;;;;;;;;;5420625;26;20467;-87
2024/05/07 09:39:04;;;;;;;15.23;11.68;;;;;;;;;;5420449;26;20010;-89
2024/05/07 09:41:31;;;;;;;17.00;12.27;;;;;;;;;;5420520;26;19995;-89
2024/05/07 09:43:58;;;;;;;18.23;12.35;;;;;;;;;;5420787;26;20043;-88
2024/05/07 09:46:29;;;;;;;18.23;12.68;;;;;;;;;;5443897;26;20009;-88
2024/05/07 09:48:55;;;;;;;16.70;11.60;;;;;;;;;;5477650;26;20360;-90
2024/05/07 09:51:22;;;;;;;19.08;12.57;;;;;;;;;;5486403;26;20518;-89
2024/05/07 09:53:51;;;;;;;14.80;10.90;;;;;;;;;;5458751;26;20010;-88
2024/05/07 09:56:19;;;;;;;17.05;11.45;;;;;;;;;;5456504;26;19990;-90
2024/05/07 09:58:47;;;;;;;16.67;12.00;;;;;;;;;;5456381;26;20006;-89
2024/05/07 10:01:17;;;;;;;16.33;11.68;;;;;;;;;;5449555;26;20321;-89
2024/05/07 10:03:43;;;;;;;18.48;12.50;;;;;;;;;;5419373;26;19994;-91
2024/05/07 10:06:09;;;;;;;16.13;10.52;;;;;;;;;;5449909;26;20002;-89
2024/05/07 10:08:45;;;;;;;16.35;11.55;;;;;;;;;;5449690;26;19995;-90
2024/05/07 10:11:11;;;;;;;16.38;11.30;;;;;;;;;;5450210;26;19990;-90
2024/05/07 10:13:46;;;;;;;16.00;11.88;;;;;;;;;;5449532;26;20344;-91
2024/05/07 10:16:26;;;;;;;16.70;11.82;;;;;;;;;;5450073;26;20018;-91
2024/05/07 10:18:54;;;;;;;16.98;11.38;;;;;;;;;;5451426;26;20313;-89
2024/05/07 10:21:20;;;;;;;17.15;12.32;;;;;;;;;;5455769;26;19998;-91
2024/05/07 10:24:03;;;;;;;17.27;11.98;;;;;;;;;;5456093;26;20026;-91
2024/05/07 10:26:29;;;;;;;17.60;12.50;;;;;;;;;;5456460;26;19991;-90
2024/05/07 10:28:55;;;;;;;18.40;11.15;;;;;;;;;;5456074;26;20014;-91
2024/05/07 10:31:21;;;;;;;16.10;11.50;;;;;;;;;;5455742;26;19994;-90
2024/05/07 10:33:48;;;;;;;14.60;11.07;;;;;;;;;;5455801;26;19998;-93
2024/05/07 10:36:18;;;;;;;17.65;12.55;;;;;;;;;;5455622;26;20005;-90
2024/05/07 10:38:44;;;;;;;16.10;12.55;;;;;;;;;;5454859;26;20387;-90
2024/05/07 10:41:11;;;;;;;16.50;11.93;;;;;;;;;;5455416;26;19994;-91
2024/05/07 10:43:43;;;;;;;18.77;12.13;;;;;;;;;;5455756;26;20018;-90
2024/05/07 10:46:18;;;;;;;15.00;11.70;;;;;;;;;;5455812;26;19990;-91
2024/05/07 10:48:45;;;;;;;14.75;11.00;;;;;;;;;;5456001;26;20338;-90
2024/05/07 10:51:12;;;;;;;18.30;10.80;;;;;;;;;;5456029;26;20326;-90
2024/05/07 10:53:39;;;;;;;14.73;10.88;;;;;;;;;;5455086;26;20326;-91
2024/05/07 10:56:05;;;;;;;17.30;11.90;;;;;;;;;;5454985;26;20363;-90
2024/05/07 10:58:31;;;;;;;17.17;12.15;;;;;;;;;;5455954;26;20047;-90
2024/05/07 11:01:00;;;;;;;15.23;11.50;;;;;;;;;;5455368;26;19994;-89
2024/05/07 11:03:26;;;;;;;18.30;12.45;;;;;;;;;;5455112;26;20095;-92
2024/05/07 11:05:52;;;;;;;14.88;11.90;;;;;;;;;;5451834;26;20017;-90
2024/05/07 11:08:20;;;;;;;17.02;12.00;;;;;;;;;;5418718;26;20003;-92
2024/05/07 11:10:46;;;;;;;15.15;11.73;;;;;;;;;;5453240;26;20023;-94
2024/05/07 11:13:12;;;;;;;14.45;10.82;;;;;;;;;;5454717;26;19994;-91
2024/05/07 11:15:38;;;;;;;17.50;11.88;;;;;;;;;;5486231;26;20031;-92
2024/05/07 11:18:04;;;;;;;15.85;12.10;;;;;;;;;;5454795;26;20071;-89
2024/05/07 11:20:30;;;;;;;16.80;11.35;;;;;;;;;;5454685;26;20008;-88
2024/05/07 11:22:56;;;;;;;14.73;11.02;;;;;;;;;;5454515;26;19994;-94
2024/05/07 11:25:22;;;;;;;14.35;10.48;;;;;;;;;;5455136;26;20010;-93
2024/05/07 11:27:48;;;;;;;15.77;10.60;;;;;;;;;;5454702;26;20066;-92
2024/05/07 11:30:22;;;;;;;14.23;10.95;;;;;;;;;;5454491;26;20014;-93
2024/05/07 11:32:48;;;;;;;18.73;11.80;;;;;;;;;;5454696;26;20009;-93
2024/05/07 11:35:14;;;;;;;13.75;11.25;;;;;;;;;;5454758;26;20001;-89
2024/05/07 11:37:40;;;;;;;15.80;12.27;;;;;;;;;;5454598;26;20070;-90
2024/05/07 11:40:07;;;;;;;14.52;10.82;;;;;;;;;;5453952;26;20014;-90
2024/05/07 11:42:34;;;;;;;13.50;11.30;;;;;;;;;;5454834;26;20013;-91
2024/05/07 11:45:00;;;;;;;15.63;11.05;;;;;;;;;;5456046;26;19998;-92
2024/05/07 11:47:26;;;;;;;13.77;10.82;;;;;;;;;;5454349;26;19998;-91
2024/05/07 11:49:52;;;;;;;13.45;9.98;;;;;;;;;;5454720;26;20001;-87
2024/05/07 11:52:18;;;;;;;13.35;9.82;;;;;;;;;;5454549;26;20330;-89
2024/05/07 11:54:44;;;;;;;13.60;10.60;;;;;;;;;;5453976;26;20066;-90
2024/05/07 11:57:10;;;;;;;12.60;9.38;;;;;;;;;;5455038;26;19998;-88
2024/05/07 11:59:37;;;;;;;17.40;11.10;;;;;;;;;;5454457;26;19990;-89
2024/05/07 12:02:03;;;;;;;13.73;9.98;;;;;;;;;;5455029;26;19998;-90
2024/05/07 12:04:29;;;;;;;17.02;10.93;;;;;;;;;;5486316;26;19994;-91
2024/05/07 12:06:55;;;;;;;14.93;11.63;;;;;;;;;;5454729;26;19998;-90
2024/05/07 12:09:21;;;;;;;15.40;11.52;;;;;;;;;;5457185;26;20330;-89
2024/05/07 12:11:50;;;;;;;12.57;10.10;;;;;;;;;;5458190;26;20008;-88
2024/05/07 12:14:16;;;;;;;12.70;8.65;;;;;;;;;;5457811;26;20088;-89
2024/05/07 12:16:43;;;;;;;8.52;7.05;;;;;;;;;;5457757;26;20043;-88
2024/05/07 12:19:09;;;;;;;11.88;8.40;;;;;;;;;;5457367;26;19990;-91
2024/05/07 12:21:35;;;;;;;11.63;8.05;;;;;;;;;;5458576;26;20008;-92
2024/05/07 12:26:45;;;;;;;9.93;8.35;;;;;;;;;;5489075;26;20040;-90
2024/05/07 12:29:11;;;;;;;11.00;9.05;;;;;;;;;;5457593;26;20006;-92
2024/05/07 12:31:37;;;;;;;11.40;9.13;;;;;;;;;;5456739;26;20034;-91
2024/05/07 12:34:03;;;;;;;11.32;8.43;;;;;;;;;;5458384;26;20460;-90
2024/05/07 12:36:29;;;;;;;13.10;10.55;;;;;;;;;;5457596;26;19997;-91
2024/05/07 12:38:55;;;;;;;13.05;10.38;;;;;;;;;;5457815;26;20419;-92
2024/05/07 12:41:21;;;;;;;13.18;9.93;;;;;;;;;;5456552;26;20010;-90
2024/05/07 12:43:47;;;;;;;14.55;10.57;;;;;;;;;;5457435;26;20038;-92
2024/05/07 12:46:14;;;;;;;14.15;10.25;;;;;;;;;;5489121;26;20422;-92
2024/05/07 12:48:40;;;;;;;14.20;10.50;;;;;;;;;;5457320;26;20399;-92
2024/05/07 12:51:06;;;;;;;13.55;10.90;;;;;;;;;;5458492;26;20438;-91
2024/05/07 12:53:32;;;;;;;12.15;9.52;;;;;;;;;;5457105;26;20454;-90
2024/05/07 12:55:58;;;;;;;13.85;10.10;;;;;;;;;;5456744;26;20070;-92
2024/05/07 12:58:24;;;;;;;14.93;10.15;;;;;;;;;;5456761;26;20005;-92
2024/05/07 13:00:50;;;;;;;15.50;10.20;;;;;;;;;;5457602;26;19994;-92
2024/05/07 13:03:19;;;;;;;16.42;10.82;;;;;;;;;;5457271;26;20013;-92
2024/05/07 13:05:45;;;;;;;12.95;10.00;;;;;;;;;;5457245;26;19997;-92
2024/05/07 13:08:11;;;;;;;13.77;9.50;;;;;;;;;;5457254;26;19994;-93
2024/05/07 13:10:37;;;;;;;12.25;9.15;;;;;;;;;;5489133;26;19998;-91
2024/05/07 13:13:04;;;;;;;9.05;7.50;;;;;;;;;;5458017;26;20435;-92
2024/05/07 13:15:29;;;;;;;10.15;7.80;;;;;;;;;;5457143;26;20005;-90
2024/05/07 13:17:55;;;;;;;10.93;7.32;;;;;;;;;;5457236;26;19994;-92
2024/05/07 13:20:21;;;;;;;15.00;9.45;;;;;;;;;;5456249;26;19998;-89
2024/05/07 13:22:47;;;;;;;12.38;9.20;;;;;;;;;;5456808;26;20002;-92
2024/05/07 13:25:13;;;;;;;12.35;9.15;;;;;;;;;;5456396;26;21641;-92
2024/05/07 13:27:40;;;;;;;11.07;8.82;;;;;;;;;;5456516;26;20002;-91
2024/05/07 13:30:06;;;;;;;11.23;8.32;;;;;;;;;;5457441;26;19998;-93
2024/05/07 13:32:32;;;;;;;12.48;9.10;;;;;;;;;;5456122;26;20443;-90
2024/05/07 13:34:58;;;;;;;12.05;9.23;;;;;;;;;;5457214;26;20047;-90
2024/05/07 13:37:24;;;;;;;12.05;8.88;;;;;;;;;;5456147;26;20061;-90
2024/05/07 13:39:50;;;;;;;15.45;9.05;;;;;;;;;;5456790;26;20006;-92
2024/05/07 13:42:16;;;;;;;13.00;8.52;;;;;;;;;;5456981;26;20314;-91
2024/05/07 13:44:42;;;;;;;15.82;8.82;;;;;;;;;;5456803;26;19998;-90
2024/05/07 13:47:08;;;;;;;12.80;8.40;;;;;;;;;;5456783;26;20009;-92
2024/05/07 13:49:34;;;;;;;11.38;7.93;;;;;;;;;;5455963;26;19994;-90
2024/05/07 13:52:00;;;;;;;9.43;6.95;;;;;;;;;;5456828;26;20317;-92
2024/05/07 13:54:26;;;;;;;9.60;6.72;;;;;;;;;;5456226;26;20002;-95
2024/05/07 13:56:52;;;;;;;8.80;5.90;;;;;;;;;;5456623;26;20008;-91
2024/05/07 13:59:18;;;;;;;9.68;8.25;;;;;;;;;;5456636;26;20006;-91
2024/05/07 14:01:44;;;;;;;10.88;7.60;;;;;;;;;;5456082;26;19994;-91
2024/05/07 14:04:10;;;;;;;12.25;8.27;;;;;;;;;;5457522;26;19994;-92
2024/05/07 14:06:36;;;;;;;9.25;7.45;;;;;;;;;;5457051;26;20062;-93
2024/05/07 14:09:02;;;;;;;11.90;8.38;;;;;;;;;;5456503;26;20010;-90
2024/05/07 14:11:28;;;;;;;11.98;7.78;;;;;;;;;;5456027;26;19990;-92
2024/05/07 14:13:54;;;;;;;12.45;8.20;;;;;;;;;;5456237;26;20430;-93
2024/05/07 14:16:20;;;;;;;13.63;7.50;;;;;;;;;;5456213;26;19992;-93